x

Big Sable Point, Mi (bsbm4) Weather Station

9:40am - Sat 28th Feb 2015 All times are CST. -6 hours from GMT.

  • Wind
    10mph, 15mph gusts
  • Air Temp 18°f
  • Sea Pressure 1038.9mb
  • Big Sable Point, Mi
  • Big Sable Point, Mi

More Historic Weather Station data

Upgrade to MSW Pro to gain access to the past 30 days of data for over 8000 Wavebouys and Weather Stations around the globe.

Join Pro

Comparision Forecast

View Surf forecast
   
Sat 02/28 9:40am 10 15 mph 1038.9mb 18f
9:30am 11 16 mph 1038.6mb 18f
9:20am 11 15 mph 1038.6mb 17f
9:10am 10 15 mph 1038.6mb 17f
9:00am 11 15 mph 1038.6mb 17f
4:40am 10 16 mph 1036.9mb 16f
4:30am 13 16 mph 1036.9mb 16f
4:20am 11 16 mph 1036.9mb 16f
4:10am 15 17 mph 1036.6mb 16f
4:00am 11 17 mph 1036.6mb 16f
Fri 02/27 3:40pm 15 18 mph 1033.9mb 17f
3:30pm 13 17 mph 1033.9mb 16f
3:20pm 14 20 mph 1033.9mb 16f
3:10pm 14 18 mph 1033.9mb 16f
3:00pm 15 20 mph 1034.2mb 16f
Thu 02/26 1:40pm 18 23 mph 1025.4mb 10f
1:30pm 18 24 mph 1025.4mb 10f
1:20pm 18 23 mph 1025.4mb 10f
1:10pm 16 22 mph 1025.4mb 10f
1:00pm 21 26 mph 1025.4mb 10f
12:50pm 17 23 mph 1025.4mb 10f
Wed 02/25 11:40pm 14 20 mph 1021mb 6f
11:30pm 15 18 mph 1021mb 6f
11:20pm 11 15 mph 1021mb 6f
11:10pm 13 17 mph 1021mb 6f
11:00pm 10 15 mph 1021mb 6f
10:50pm 10 17 mph 1021mb 7f
10:40pm 9 17 mph 1021mb 7f
10:30pm 15 17 mph 1020.7mb 7f
10:20pm 14 20 mph 1020.7mb 7f
10:10pm 13 18 mph 1020.7mb 7f
10:00pm 11 17 mph 1020.7mb 7f
9:50pm 14 16 mph 1020.7mb 8f
9:40pm 10 15 mph 1020.7mb 8f
9:30pm 14 18 mph 1020.3mb 8f
9:20pm 10 17 mph 1020.3mb 8f
9:10pm 10 16 mph 1020.3mb 8f
9:00pm 13 16 mph 1020mb 9f
8:50pm 9 17 mph 1020mb 9f
5:40pm 10 16 mph 1017.9mb 12f
5:30pm 14 20 mph 1017.6mb 12f
5:20pm 11 16 mph 1017.6mb 12f
5:10pm 15 18 mph 1017.3mb 12f
5:00pm 13 16 mph 1017.3mb 12f
4:50pm 11 15 mph 1017.3mb 12f
4:40pm 13 15 mph 1017.3mb 13f
4:30pm 11 15 mph 1017.3mb 13f
4:20pm 10 16 mph 1017.3mb 13f
4:10pm 8 14 mph 1017.3mb 13f
4:00pm 8 13 mph 1017.3mb 13f
3:50pm 10 15 mph 1017.3mb 12f
3:40pm 11 15 mph 1017.3mb 13f
3:30pm 9 14 mph 1017.3mb 13f
3:20pm 10 14 mph 1017.3mb 12f
3:10pm 9 14 mph 1017.3mb 13f
3:00pm 10 14 mph 1017.3mb 13f
2:50pm 9 14 mph 1017.3mb 13f
2:40pm 9 11 mph 1017.3mb 13f
2:30pm 7 10 mph 1016.9mb 13f
2:20pm 9 11 mph 1016.9mb 13f
2:10pm 8 11 mph 1016.9mb 13f
2:00pm 9 11 mph 1017.3mb 13f
1:50pm 9 13 mph 1017.3mb 13f
1:40pm 9 10 mph 1016.9mb 14f
1:30pm 9 13 mph 1016.9mb 13f
1:20pm 8 14 mph 1016.9mb 13f
1:10pm 7 14 mph 1017.3mb 13f
1:00pm 10 15 mph 1017.3mb 13f
12:50pm 13 16 mph 1017.6mb 13f
12:40pm 10 13 mph 1017.6mb 13f
12:30pm 8 15 mph 1017.6mb 13f
12:20pm 9 13 mph 1017.6mb 13f
12:10pm 8 11 mph 1017.6mb 13f
12:00pm 9 13 mph 1017.6mb 13f
11:50am 7 13 mph 1017.6mb 13f
11:40am 10 15 mph 1017.6mb 13f
11:30am 11 15 mph 1017.6mb 13f
11:20am 10 14 mph 1017.6mb 13f
11:10am 9 14 mph 1017.3mb 14f
11:00am 10 14 mph 1017.3mb 13f
10:50am 9 15 mph 1016.9mb 13f
4:40am 16 25 mph 1013.5mb 11f
4:30am 20 24 mph 1013.5mb 11f
4:20am 21 26 mph 1013.5mb 11f
4:10am 22 28 mph 1013.2mb 11f
4:00am 21 26 mph 1013.2mb 11f
3:50am 21 24 mph 1013.2mb 12f
3:40am 22 25 mph 1013.2mb 11f
3:30am 20 25 mph 1012.9mb 11f
3:20am 16 24 mph 1012.9mb 11f
3:10am 21 28 mph 1012.5mb 11f
3:00am 22 26 mph 1012.5mb 11f
2:50am 18 26 mph 1012.2mb 11f
2:40am 21 28 mph 1012.2mb 11f
2:30am 22 28 mph 1011.9mb 11f
2:20am 21 25 mph 1011.9mb 11f
2:10am 22 26 mph 1011.5mb 11f
2:00am 21 28 mph 1011.5mb 11f
1:50am 22 29 mph 1011.5mb 12f
1:40am 23 31 mph 1011.2mb 12f
1:32am 22 31 mph 1011.2mb 12f
1:30am 21 30 mph 1011.2mb 12f
1:20am 21 30 mph 1011.2mb 12f
1:10am 18 29 mph 1010.8mb 12f
1:00am 23 30 mph 1010.8mb 13f
12:50am 22 32 mph 1010.8mb 12f
12:40am 26
mph
1010.5mb 13f
12:22am 22 29 mph 1010.2mb 14f
Tue 02/24 11:40pm 24 34 mph 1009.8mb 14f
11:30pm 28 41 mph 1009.5mb 15f
11:22pm 30 41 mph 1009.1mb 15f
11:20pm 30 39 mph 1009.5mb 15f
11:10pm 32 40 mph 1009.5mb 15f
11:00pm 29 40 mph 1009.1mb 15f
10:50pm 26 37 mph 1008.8mb 15f
10:42pm 29
mph
1008.8mb 16f
10:40pm 29 37 mph 1008.5mb 16f
10:30pm 26 32 mph 1008.5mb 17f
10:20pm 26 37 mph 1008.1mb 17f
10:10pm 26 37 mph 1007.8mb 19f
10:06pm 28 31 mph 1007.8mb 19f
10:00pm 28 34 mph 1007.8mb 19f
9:50pm 30 37 mph 1007.5mb 20f
9:41pm 24
mph
1007.1mb 20f
9:06pm 25 30 mph 1006.1mb 20f
8:41pm 29
mph
1005.4mb 21f
8:40pm 29 37 mph 1005.1mb 21f
8:30pm 25 38 mph 1004.7mb 22f
8:20pm 23 36 mph 1004.7mb 22f
8:10pm 26 37 mph 1004.4mb 22f
8:05pm 26 30 mph 1004.1mb 23f
8:00pm 25 34 mph 1004.1mb 24f
7:50pm 25 33 mph 1003.7mb 25f
7:40pm 23 32 mph 1003.4mb 26f
7:30pm 21 33 mph 1003mb 26f
7:20pm 22 38 mph 1002.7mb 26f
7:10pm 33 44 mph 1002mb 31f
7:05pm 31 40 mph 1001.7mb 31f
7:00pm 30 36 mph 1001.7mb 31f
6:50pm 30 37 mph 1001.7mb 31f
6:40pm 30 39 mph 1001.4mb 31f
6:30pm 36 40 mph 1001mb 31f
6:28pm 29 37 mph 1000.7mb 31f
6:20pm 32 38 mph 1000.7mb 31f
6:10pm 31 39 mph 1000.7mb 31f
6:00pm 30 38 mph 1000.7mb 32f
5:50pm 28 34 mph 1000.7mb 32f
4:57pm 20 30 mph 999.3mb 30f
4:40pm 20 28 mph 999.3mb 30f
4:30pm 22 33 mph 999.7mb 29f